Ever Develop — 3FLF8 — position and weather

sailwx.info

Track history (hours):
 
Tides and Currents Weather Stations Pressure Air Temp Water Temp Dewpoint Dewpoint Depression Visibility Wind Speed Wind Dir Waves Ship Positions

Ever Develop

Last reported at 2017-Feb-12 21:11 UTC. Time now 2017-Feb-20 22:22 UTC.
Position N 01°18' E 103°21'.
Warning: this ship's position is 8 days out of date.

Type: Ship (hazmat cat D). MMSI: 356391000.

Date/timePositionNaut miles runAvg speedWind from/ knotsBaromVisibWave heightAir tempDewpointWater temp
2017-Feb-12 21:11N 01°18' E 103°21'1015.3
2017-Feb-12 20:33N 01°13' E 103°29'1211.7
2017-Feb-12 19:33N 01°13' E 103°41'7 6.5
2017-Feb-12 18:29N 01°16' E 103°47'0 0.0
2017-Feb-12 17:32N 01°16' E 103°47'0 0.1
2017-Feb-12 16:32N 01°16' E 103°47'0 0.1
2017-Feb-12 15:32N 01°16' E 103°47'0 0.1
2017-Feb-12 14:32N 01°16' E 103°47'0 0.1
2017-Feb-12 13:32N 01°16' E 103°47'0 0.0
2017-Feb-12 12:32N 01°16' E 103°47'0 0.1
2017-Feb-12 11:32N 01°16' E 103°47'0 0.0
2017-Feb-12 10:29N 01°16' E 103°47'0 0.0
2017-Feb-12 09:32N 01°16' E 103°47'0 0.0
2017-Feb-12 08:32N 01°16' E 103°47'0 0.1
2017-Feb-12 07:33N 01°16' E 103°47'6 5.9
2017-Feb-12 06:33N 01°14' E 103°42'8 8.0
2017-Feb-12 05:33N 01°12' E 103°34'6 6.0
2017-Feb-12 04:33N 01°11' E 103°28'1 0.7
2017-Feb-12 03:33N 01°12' E 103°28'2 1.5
2017-Feb-12 02:33N 01°12' E 103°27'1 1.2
2017-Feb-12 01:33N 01°12' E 103°28'1 1.2
2017-Feb-12 00:33N 01°12' E 103°27'2 1.6
2017-Feb-11 23:33N 01°12' E 103°28'5 5.1
2017-Feb-11 22:33N 01°15' E 103°32'7 6.7
2017-Feb-11 21:33N 01°22' E 103°33'0 0.1
2017-Feb-11 20:26N 01°22' E 103°33'0 0.0
2017-Feb-11 19:23N 01°22' E 103°33'0 0.0
2017-Feb-11 18:32N 01°22' E 103°33'0 0.0
2017-Feb-11 17:32N 01°22' E 103°33'0 0.0
2017-Feb-11 16:26N 01°22' E 103°33'0 0.0
2017-Feb-11 15:32N 01°22' E 103°33'0 0.0
2017-Feb-11 14:32N 01°22' E 103°33'0 0.0
2017-Feb-11 13:32N 01°22' E 103°33'0 0.1
2017-Feb-11 12:29N 01°22' E 103°33'0 0.1
2017-Feb-11 11:29N 01°22' E 103°33'0 0.0
2017-Feb-11 10:29N 01°22' E 103°33'0 0.0
2017-Feb-11 09:29N 01°22' E 103°33'0 0.0
2017-Feb-11 08:32N 01°22' E 103°33'0 0.0
2017-Feb-11 07:20N 01°22' E 103°33'0 0.0
2017-Feb-11 05:32N 01°22' E 103°33'1 0.8
2017-Feb-11 04:33N 01°21' E 103°33'8 7.6
2017-Feb-11 03:33N 01°13' E 103°32'5 5.5
2017-Feb-11 02:34N 01°11' E 103°27'  
Track history (hours):
 
Tides and Currents Weather Stations Pressure Air Temp Water Temp Dewpoint Dewpoint Depression Visibility Wind Speed Wind Dir Waves Ship Positions

Ever Develop

Last reported at 2017-Feb-12 21:11 UTC. Time now 2017-Feb-20 22:22 UTC.
Position N 01°18' E 103°21'.
Warning: this ship's position is 8 days out of date.

Type: Ship (hazmat cat D). MMSI: 356391000.

Date/timePositionNaut miles runAvg speedWind from/ knotsBaromVisibWave heightAir tempDewpointWater temp
2017-Feb-12 21:11N 01°18' E 103°21'1015.3
2017-Feb-12 20:33N 01°13' E 103°29'1211.7
2017-Feb-12 19:33N 01°13' E 103°41'7 6.5
2017-Feb-12 18:29N 01°16' E 103°47'0 0.0
2017-Feb-12 17:32N 01°16' E 103°47'0 0.1
2017-Feb-12 16:32N 01°16' E 103°47'0 0.1
2017-Feb-12 15:32N 01°16' E 103°47'0 0.1
2017-Feb-12 14:32N 01°16' E 103°47'0 0.1
2017-Feb-12 13:32N 01°16' E 103°47'0 0.0
2017-Feb-12 12:32N 01°16' E 103°47'0 0.1
2017-Feb-12 11:32N 01°16' E 103°47'0 0.0
2017-Feb-12 10:29N 01°16' E 103°47'0 0.0
2017-Feb-12 09:32N 01°16' E 103°47'0 0.0
2017-Feb-12 08:32N 01°16' E 103°47'0 0.1
2017-Feb-12 07:33N 01°16' E 103°47'6 5.9
2017-Feb-12 06:33N 01°14' E 103°42'8 8.0
2017-Feb-12 05:33N 01°12' E 103°34'6 6.0
2017-Feb-12 04:33N 01°11' E 103°28'1 0.7
2017-Feb-12 03:33N 01°12' E 103°28'2 1.5
2017-Feb-12 02:33N 01°12' E 103°27'1 1.2
2017-Feb-12 01:33N 01°12' E 103°28'1 1.2
2017-Feb-12 00:33N 01°12' E 103°27'2 1.6
2017-Feb-11 23:33N 01°12' E 103°28'5 5.1
2017-Feb-11 22:33N 01°15' E 103°32'7 6.7
2017-Feb-11 21:33N 01°22' E 103°33'0 0.1
2017-Feb-11 20:26N 01°22' E 103°33'0 0.0
2017-Feb-11 19:23N 01°22' E 103°33'0 0.0
2017-Feb-11 18:32N 01°22' E 103°33'0 0.0
2017-Feb-11 17:32N 01°22' E 103°33'0 0.0
2017-Feb-11 16:26N 01°22' E 103°33'0 0.0
2017-Feb-11 15:32N 01°22' E 103°33'0 0.0
2017-Feb-11 14:32N 01°22' E 103°33'0 0.0
2017-Feb-11 13:32N 01°22' E 103°33'0 0.1
2017-Feb-11 12:29N 01°22' E 103°33'0 0.1
2017-Feb-11 11:29N 01°22' E 103°33'0 0.0
2017-Feb-11 10:29N 01°22' E 103°33'0 0.0
2017-Feb-11 09:29N 01°22' E 103°33'0 0.0
2017-Feb-11 08:32N 01°22' E 103°33'0 0.0
2017-Feb-11 07:20N 01°22' E 103°33'0 0.0
2017-Feb-11 05:32N 01°22' E 103°33'1 0.8
2017-Feb-11 04:33N 01°21' E 103°33'8 7.6
2017-Feb-11 03:33N 01°13' E 103°32'5 5.5
2017-Feb-11 02:34N 01°11' E 103°27'  

Dump ship's entire track history